Time;durP1;ratioP1;P1;durP2;ratioP2;P2;SDS_P1;SDS_P2;PMS_P1;PMS_P2;Temp;Humidity;BMP_temperature;BMP_pressure;BME280_temperature;BME280_humidity;BME280_pressure;Samples;Min_cycle;Max_cycle;Signal;HPM_P1;HPM_P2
2022/01/15 00:01:31;;;;;;;49.70;19.93;;;1.00;99.90;;;;;;5031333;28;20582;-71
2022/01/15 00:03:56;;;;;;;52.00;20.80;;;1.00;99.90;;;;;;5039705;28;20184;-72
2022/01/15 00:06:22;;;;;;;47.50;20.47;;;1.00;99.90;;;;;;5032684;28;20345;-70
2022/01/15 00:08:48;;;;;;;51.07;21.00;;;1.10;99.90;;;;;;5027559;28;20206;-72
2022/01/15 00:11:13;;;;;;;47.43;20.37;;;1.10;99.90;;;;;;5030650;28;20186;-70
2022/01/15 00:13:41;;;;;;;53.97;21.30;;;1.10;99.90;;;;;;5026972;28;20231;-70
2022/01/15 00:16:14;;;;;;;53.33;20.30;;;1.10;99.90;;;;;;5027861;28;20173;-70
2022/01/15 00:18:59;;;;;;;42.60;20.10;;;1.10;99.90;;;;;;5026663;28;20448;-71
2022/01/15 00:21:26;;;;;;;77.87;19.87;;;1.50;99.90;;;;;;5026156;28;20693;-70
2022/01/15 00:23:52;;;;;;;54.47;20.90;;;1.20;99.90;;;;;;5027126;28;20417;-71
2022/01/15 00:26:17;;;;;;;49.67;19.70;;;1.20;99.90;;;;;;5028055;28;20802;-70
2022/01/15 00:28:43;;;;;;;42.27;19.20;;;1.20;99.90;;;;;;5028494;28;20228;-69
2022/01/15 00:31:08;;;;;;;44.40;19.47;;;1.20;99.90;;;;;;5028048;28;20236;-70
2022/01/15 00:33:34;;;;;;;43.23;19.23;;;;;;;;;;5038813;28;20276;-70
2022/01/15 00:36:00;;;;;;;51.70;19.50;;;1.20;99.90;;;;;;5034534;28;20178;-70
2022/01/15 00:38:26;;;;;;;52.73;21.00;;;1.10;99.90;;;;;;5042476;28;20169;-70
2022/01/15 00:40:51;;;;;;;56.93;21.23;;;1.30;99.90;;;;;;5048063;28;20403;-70
2022/01/15 00:43:18;;;;;;;62.17;21.20;;;;;;;;;;5046361;28;20219;-70
2022/01/15 00:45:44;;;;;;;53.73;22.23;;;1.10;99.90;;;;;;5034774;28;20205;-70
2022/01/15 00:48:10;;;;;;;49.40;19.77;;;1.20;99.90;;;;;;5027216;28;20411;-70
2022/01/15 00:50:35;;;;;;;57.97;20.23;;;1.10;99.90;;;;;;5028273;28;20543;-71
2022/01/15 00:53:01;;;;;;;42.47;19.10;;;1.10;99.90;;;;;;5025846;28;20276;-70
2022/01/15 00:55:27;;;;;;;62.87;20.13;;;1.10;99.90;;;;;;5027689;28;20231;-70
2022/01/15 00:57:52;;;;;;;47.83;19.77;;;;;;;;;;5028562;28;20216;-70
2022/01/15 01:00:22;;;;;;;45.17;18.60;;;1.10;99.90;;;;;;5027571;28;20193;-70
2022/01/15 01:02:48;;;;;;;47.87;21.50;;;1.10;99.90;;;;;;5034263;28;20248;-71
2022/01/15 01:05:15;;;;;;;60.03;21.47;;;1.20;99.90;;;;;;5039421;28;20965;-70
2022/01/15 01:07:41;;;;;;;48.90;20.43;;;1.20;99.90;;;;;;5027475;28;20516;-70
2022/01/15 01:23:00;;;;;;;49.47;19.73;;;1.10;99.90;;;;;;5031510;28;20462;-72
2022/01/15 01:25:36;;;;;;;51.03;20.87;;;1.00;99.90;;;;;;5030914;28;20580;-70
2022/01/15 01:28:08;;;;;;;42.50;19.53;;;1.00;99.90;;;;;;5029895;28;20228;-70
2022/01/15 01:30:43;;;;;;;53.37;20.47;;;0.90;99.90;;;;;;5031604;28;20448;-70
2022/01/15 01:35:42;;;;;;;50.33;20.37;;;0.90;99.90;;;;;;5041854;28;20420;-70
2022/01/15 01:38:16;;;;;;;43.93;18.90;;;0.90;99.90;;;;;;5031279;28;20495;-69
2022/01/15 01:40:45;;;;;;;41.63;18.73;;;0.90;99.90;;;;;;5030462;28;20424;-71
2022/01/15 01:44:01;;;;;;;45.47;19.07;;;0.90;99.90;;;;;;5028253;28;20915;-70
2022/01/15 01:48:37;;;;;;;46.63;19.93;;;1.00;99.90;;;;;;5011782;28;20432;-72
2022/01/15 01:51:06;;;;;;;59.07;18.17;;;1.00;99.90;;;;;;5025418;28;20447;-71
2022/01/15 01:53:32;;;;;;;41.87;19.30;;;;;;;;;;5030785;28;20521;-69
2022/01/15 01:55:57;;;;;;;38.33;17.00;;;0.90;99.90;;;;;;5029032;28;20470;-69
2022/01/15 01:58:23;;;;;;;42.00;19.37;;;1.00;99.90;;;;;;5031212;28;20419;-69
2022/01/15 02:00:48;;;;;;;38.40;18.17;;;1.00;99.90;;;;;;5031243;28;20217;-69
2022/01/15 02:03:14;;;;;;;40.73;17.87;;;1.00;99.90;;;;;;5042913;28;20181;-70
2022/01/15 02:05:40;;;;;;;37.20;17.00;;;1.00;99.90;;;;;;5029396;28;20181;-69
2022/01/15 02:08:05;;;;;;;41.53;18.20;;;1.00;99.90;;;;;;5028673;28;20364;-70
2022/01/15 02:10:32;;;;;;;38.27;17.37;;;1.00;99.90;;;;;;5030412;28;20201;-70
2022/01/15 02:13:00;;;;;;;31.90;16.50;;;1.00;99.90;;;;;;5029883;28;20178;-70
2022/01/15 02:15:27;;;;;;;38.77;17.07;;;1.10;99.90;;;;;;5029929;28;20478;-70
2022/01/15 02:17:53;;;;;;;37.20;18.00;;;1.10;99.90;;;;;;5030212;28;20417;-70
2022/01/15 02:25:49;;;;;;;36.27;16.53;;;1.10;99.90;;;;;;5029494;28;20866;-70
2022/01/15 02:28:17;;;;;;;38.37;16.40;;;1.10;99.90;;;;;;5030115;28;20482;-70
2022/01/15 02:30:43;;;;;;;39.87;17.33;;;1.10;99.90;;;;;;5030150;28;20502;-70
2022/01/15 02:33:09;;;;;;;38.93;16.77;;;1.10;99.90;;;;;;5037748;28;20429;-70
2022/01/15 02:35:35;;;;;;;35.57;16.60;;;1.10;99.90;;;;;;5038786;28;20181;-70
2022/01/15 02:38:07;;;;;;;47.53;16.90;;;1.50;99.90;;;;;;5029425;28;20930;-70
2022/01/15 02:40:35;;;;;;;38.43;17.10;;;1.00;99.90;;;;;;5028878;28;20456;-69
2022/01/15 02:43:10;;;;;;;46.03;19.27;;;1.00;99.90;;;;;;5028273;28;20504;-70
2022/01/15 02:45:38;;;;;;;45.47;17.70;;;0.90;99.90;;;;;;5016212;28;20419;-70
2022/01/15 02:48:09;;;;;;;45.80;18.27;;;1.00;99.90;;;;;;5029240;28;20416;-69
2022/01/15 02:50:35;;;;;;;78.67;19.03;;;1.00;99.90;;;;;;5029776;28;20468;-69
2022/01/15 02:53:02;;;;;;;45.57;17.47;;;1.00;99.90;;;;;;5027835;28;20459;-70
2022/01/15 02:55:28;;;;;;;45.43;17.60;;;1.00;99.90;;;;;;5027989;28;20581;-70
2022/01/15 02:57:54;;;;;;;43.77;18.00;;;;;;;;;;5029830;28;20463;-69
2022/01/15 03:00:20;;;;;;;56.90;21.07;;;1.00;99.90;;;;;;5029763;28;20197;-69
2022/01/15 03:02:46;;;;;;;49.07;19.30;;;0.90;99.90;;;;;;5037073;28;20925;-70
2022/01/15 03:05:12;;;;;;;47.17;18.97;;;;;;;;;;5028928;28;20452;-70
2022/01/15 03:07:37;;;;;;;50.70;18.80;;;0.90;99.90;;;;;;5029404;28;20178;-70
2022/01/15 03:10:04;;;;;;;69.97;20.87;;;1.00;99.90;;;;;;5029906;28;21008;-72
2022/01/15 03:12:30;;;;;;;47.53;19.63;;;0.90;99.90;;;;;;5029755;28;20544;-70
2022/01/15 03:15:00;;;;;;;54.37;20.10;;;1.00;99.90;;;;;;5029099;28;20512;-70
2022/01/15 03:17:25;;;;;;;52.67;19.10;;;1.00;99.90;;;;;;5028770;28;20316;-70
2022/01/15 03:19:51;;;;;;;58.40;18.07;;;1.00;99.90;;;;;;5029290;28;20531;-70
2022/01/15 03:22:16;;;;;;;50.20;18.50;;;1.00;99.90;;;;;;5027030;28;20212;-70
2022/01/15 03:24:42;;;;;;;53.93;17.60;;;1.50;99.90;;;;;;5028450;28;20180;-71
2022/01/15 03:27:07;;;;;;;64.43;18.27;;;1.00;99.90;;;;;;5029590;28;20184;-69
2022/01/15 03:29:33;;;;;;;48.13;16.60;;;;;;;;;;5029576;28;20641;-70
2022/01/15 03:31:59;;;;;;;88.07;18.40;;;1.00;99.90;;;;;;5034557;28;20177;-70
2022/01/15 03:34:25;;;;;;;46.27;17.50;;;1.00;99.90;;;;;;5027713;28;20914;-70
2022/01/15 03:36:50;;;;;;;41.47;16.57;;;1.00;99.90;;;;;;5029104;28;20190;-70
2022/01/15 03:39:16;;;;;;;78.33;16.60;;;1.00;99.90;;;;;;5027006;28;20194;-70
2022/01/15 03:41:41;;;;;;;52.53;17.47;;;1.00;99.90;;;;;;5028940;28;20328;-70
2022/01/15 03:44:07;;;;;;;66.43;17.07;;;0.90;99.90;;;;;;5027953;28;20166;-70
2022/01/15 03:46:33;;;;;;;52.03;18.60;;;0.90;99.90;;;;;;5022365;28;20267;-70
2022/01/15 03:48:58;;;;;;;67.73;16.67;;;1.00;99.90;;;;;;5026613;28;20194;-70
2022/01/15 03:51:24;;;;;;;74.70;18.97;;;1.00;99.90;;;;;;5028598;28;20655;-70
2022/01/15 03:53:49;;;;;;;42.43;16.43;;;1.00;99.90;;;;;;5027742;28;20184;-71
2022/01/15 03:56:15;;;;;;;52.50;18.60;;;1.00;99.90;;;;;;5028804;28;20217;-70
2022/01/15 03:58:40;;;;;;;44.90;16.70;;;1.10;99.90;;;;;;5028224;28;20202;-70
2022/01/15 04:01:06;;;;;;;62.83;17.70;;;1.30;99.90;;;;;;5027135;28;20340;-70
2022/01/15 04:03:32;;;;;;;55.07;17.80;;;1.60;99.90;;;;;;5032982;28;20228;-71
2022/01/15 04:05:57;;;;;;;53.13;17.73;;;1.50;99.90;;;;;;5028780;28;20202;-70
2022/01/15 04:08:23;;;;;;;61.57;18.43;;;1.10;99.90;;;;;;5025941;28;20193;-70
2022/01/15 04:10:48;;;;;;;46.47;17.17;;;1.10;99.90;;;;;;5028623;28;20206;-70
2022/01/15 04:13:15;;;;;;;39.23;16.60;;;;;;;;;;5041843;28;20189;-69
2022/01/15 04:15:42;;;;;;;51.83;17.07;;;1.10;99.90;;;;;;5034561;28;20170;-71
2022/01/15 04:18:08;;;;;;;48.80;16.87;;;1.10;99.90;;;;;;5025696;28;20823;-70
2022/01/15 04:20:34;;;;;;;36.77;14.40;;;1.10;99.90;;;;;;5028031;28;20453;-70
2022/01/15 04:22:59;;;;;;;33.93;15.70;;;1.10;99.90;;;;;;5026421;28;20756;-70
2022/01/15 04:25:25;;;;;;;44.73;16.03;;;1.10;99.90;;;;;;5027476;28;20174;-70
2022/01/15 04:27:51;;;;;;;59.03;17.10;;;1.10;99.90;;;;;;5028068;28;20671;-70
2022/01/15 04:30:18;;;;;;;41.27;15.10;;;1.10;99.90;;;;;;5028210;28;20432;-69
2022/01/15 04:32:44;;;;;;;39.63;15.20;;;1.10;99.90;;;;;;5029701;28;20173;-71
2022/01/15 04:35:10;;;;;;;45.80;15.20;;;1.10;99.90;;;;;;5037021;28;20797;-69
2022/01/15 04:37:40;;;;;;;69.07;17.03;;;1.10;99.90;;;;;;5028071;28;20186;-71
2022/01/15 04:40:08;;;;;;;49.07;17.77;;;1.10;99.90;;;;;;5027590;28;20476;-71
2022/01/15 04:42:34;;;;;;;55.77;16.57;;;1.10;99.90;;;;;;5026441;28;20467;-70
2022/01/15 04:45:01;;;;;;;48.10;17.07;;;1.00;99.90;;;;;;5027302;28;20410;-70
2022/01/15 04:47:26;;;;;;;43.13;16.43;;;1.10;99.90;;;;;;5026108;28;20611;-71
2022/01/15 04:49:54;;;;;;;71.93;16.90;;;1.20;99.90;;;;;;5027486;28;20436;-70
2022/01/15 04:52:23;;;;;;;42.87;16.20;;;1.10;99.90;;;;;;5024909;28;20328;-70
2022/01/15 04:54:49;;;;;;;41.20;16.47;;;1.10;99.90;;;;;;5026551;28;20417;-71
2022/01/15 04:57:14;;;;;;;63.37;15.37;;;1.10;99.90;;;;;;5028377;28;20421;-70
2022/01/15 04:59:40;;;;;;;58.63;16.20;;;1.10;99.90;;;;;;5026269;28;20253;-70
2022/01/15 05:02:05;;;;;;;57.13;16.03;;;1.60;99.90;;;;;;5035475;28;20202;-70
2022/01/15 05:04:31;;;;;;;69.87;16.80;;;1.50;99.90;;;;;;5026637;28;20212;-70
2022/01/15 05:06:57;;;;;;;44.00;16.83;;;;;;;;;;5027834;28;20212;-69
2022/01/15 05:09:22;;;;;;;67.57;18.00;;;1.10;99.90;;;;;;5026595;28;20205;-70
2022/01/15 05:11:58;;;;;;;60.27;16.50;;;1.00;99.90;;;;;;5026287;28;20188;-70
2022/01/15 05:14:24;;;;;;;44.63;16.93;;;1.40;99.90;;;;;;5026943;28;20181;-71
2022/01/15 05:16:49;;;;;;;56.10;15.30;;;1.10;99.90;;;;;;5027594;28;20906;-69
2022/01/15 05:19:15;;;;;;;52.93;16.33;;;1.10;99.90;;;;;;5027364;28;20666;-69
2022/01/15 05:21:40;;;;;;;79.63;15.93;;;1.50;99.90;;;;;;5025924;28;20672;-70
2022/01/15 05:24:06;;;;;;;60.40;16.17;;;1.50;99.90;;;;;;5026283;28;20280;-70
2022/01/15 05:26:33;;;;;;;55.90;16.60;;;;;;;;;;5027610;28;20257;-70
2022/01/15 05:28:58;;;;;;;42.60;15.90;;;1.00;99.90;;;;;;5027407;28;20219;-70
2022/01/15 05:31:24;;;;;;;42.77;15.20;;;1.00;99.90;;;;;;5027671;28;20693;-70
2022/01/15 05:33:50;;;;;;;52.27;16.40;;;1.00;99.90;;;;;;5034913;28;20182;-70
2022/01/15 05:36:16;;;;;;;68.30;16.80;;;1.00;99.90;;;;;;5026959;28;20475;-70
2022/01/15 05:38:42;;;;;;;61.10;16.00;;;0.90;99.90;;;;;;5026308;28;20488;-70
2022/01/15 05:41:07;;;;;;;61.47;15.30;;;1.10;99.90;;;;;;5026975;28;20223;-70
2022/01/15 05:43:33;;;;;;;78.00;16.10;;;1.00;99.90;;;;;;5025382;28;20182;-70
2022/01/15 05:45:58;;;;;;;53.20;14.40;;;0.90;99.90;;;;;;5026881;28;20186;-71
2022/01/15 05:48:24;;;;;;;42.73;13.93;;;0.80;99.90;;;;;;5024264;28;20533;-70
2022/01/15 05:50:49;;;;;;;56.77;15.40;;;0.80;99.90;;;;;;5025290;28;20177;-70
2022/01/15 05:53:15;;;;;;;71.60;14.80;;;0.90;99.90;;;;;;5024481;28;20178;-70
2022/01/15 05:55:40;;;;;;;34.53;15.23;;;0.90;99.90;;;;;;5024619;28;20636;-70
2022/01/15 05:58:07;;;;;;;46.27;15.10;;;;;;;;;;5026859;28;20250;-70
2022/01/15 06:00:33;;;;;;;36.07;14.93;;;0.90;99.90;;;;;;5025701;28;20193;-70
2022/01/15 06:02:59;;;;;;;51.33;15.20;;;1.00;99.90;;;;;;5036137;28;20524;-70
2022/01/15 06:05:25;;;;;;;34.23;14.60;;;;;;;;;;5037611;28;20793;-70
2022/01/15 06:07:51;;;;;;;44.37;14.03;;;;;;;;;;5030340;28;20632;-70
2022/01/15 06:10:17;;;;;;;52.60;15.03;;;1.00;99.90;;;;;;5028469;28;20440;-70
2022/01/15 06:12:44;;;;;;;48.83;16.60;;;0.90;99.90;;;;;;5030759;28;20716;-70
2022/01/15 06:15:12;;;;;;;51.40;16.00;;;0.90;99.90;;;;;;5031951;28;20522;-70
2022/01/15 06:17:38;;;;;;;67.27;16.80;;;0.90;99.90;;;;;;5028757;28;20462;-72
2022/01/15 06:20:04;;;;;;;42.87;16.17;;;1.00;99.90;;;;;;5029613;28;20810;-70
2022/01/15 06:22:30;;;;;;;41.67;15.13;;;1.00;99.90;;;;;;5029681;28;20448;-72
2022/01/15 06:24:55;;;;;;;43.30;15.33;;;1.00;99.90;;;;;;5029597;28;20802;-71
2022/01/15 06:27:21;;;;;;;47.30;16.50;;;1.00;99.90;;;;;;5030322;28;20170;-71
2022/01/15 06:29:46;;;;;;;39.47;15.43;;;1.00;99.90;;;;;;5030376;28;20190;-71
2022/01/15 06:32:12;;;;;;;55.03;17.43;;;1.50;99.90;;;;;;5029935;28;20197;-71
2022/01/15 06:34:38;;;;;;;60.53;17.97;;;1.00;99.90;;;;;;5028282;28;20170;-71
2022/01/15 06:37:05;;;;;;;44.23;16.97;;;1.00;99.90;;;;;;5029601;28;20491;-72
2022/01/15 06:39:32;;;;;;;50.07;18.30;;;1.00;99.90;;;;;;5029811;28;20428;-71
2022/01/15 06:41:57;;;;;;;48.77;16.57;;;1.10;99.90;;;;;;5029128;28;20468;-71
2022/01/15 06:44:23;;;;;;;45.30;16.63;;;1.00;99.90;;;;;;5038921;28;20917;-71
2022/01/15 06:46:49;;;;;;;51.73;17.47;;;;;;;;;;5046514;28;20184;-71
2022/01/15 06:49:14;;;;;;;82.27;17.33;;;1.10;99.90;;;;;;5030020;28;20194;-71
2022/01/15 06:51:40;;;;;;;62.63;17.67;;;1.00;99.90;;;;;;5029213;28;20194;-71
2022/01/15 06:54:05;;;;;;;42.37;16.27;;;1.60;99.90;;;;;;5027277;28;20189;-71
2022/01/15 06:56:31;;;;;;;47.23;18.33;;;1.10;99.90;;;;;;5028084;28;20210;-71
2022/01/15 06:58:57;;;;;;;47.00;16.20;;;;;;;;;;5029729;28;20202;-71
2022/01/15 07:01:23;;;;;;;48.10;18.30;;;1.20;99.90;;;;;;5029192;28;20212;-70
2022/01/15 07:03:49;;;;;;;42.67;16.97;;;1.20;99.90;;;;;;5028924;28;20474;-71
2022/01/15 07:06:14;;;;;;;37.70;15.60;;;1.20;99.90;;;;;;5029121;28;20420;-71
2022/01/15 07:08:40;;;;;;;38.27;16.13;;;1.30;99.90;;;;;;5027715;28;20210;-71
2022/01/15 07:11:05;;;;;;;47.87;16.37;;;1.30;99.90;;;;;;5029051;28;20177;-71
2022/01/15 07:13:33;;;;;;;44.17;16.60;;;1.30;99.90;;;;;;5035497;28;20555;-71
2022/01/15 07:15:59;;;;;;;54.40;15.20;;;1.30;99.90;;;;;;5038908;28;20652;-71
2022/01/15 07:18:24;;;;;;;39.30;16.83;;;1.30;99.90;;;;;;5029327;28;20423;-70
2022/01/15 07:20:51;;;;;;;35.97;15.57;;;1.30;99.90;;;;;;5029048;28;20217;-71
2022/01/15 07:23:17;;;;;;;36.80;16.33;;;1.20;99.90;;;;;;5028440;28;20166;-71
2022/01/15 07:25:43;;;;;;;34.60;16.53;;;1.30;99.90;;;;;;5027348;28;20755;-71
2022/01/15 07:28:09;;;;;;;36.90;15.20;;;;;;;;;;5029408;28;20572;-71
2022/01/15 07:30:35;;;;;;;37.57;16.23;;;1.40;99.90;;;;;;5027619;28;20197;-72
2022/01/15 07:33:01;;;;;;;60.00;16.50;;;1.40;99.90;;;;;;5028130;28;20786;-71
2022/01/15 07:35:28;;;;;;;49.03;17.10;;;1.40;99.90;;;;;;5027942;28;20511;-70
2022/01/15 07:37:54;;;;;;;39.87;16.53;;;;;;;;;;5026376;28;20432;-71
2022/01/15 07:40:19;;;;;;;42.53;16.03;;;1.50;99.90;;;;;;5024858;28;20459;-71
2022/01/15 07:42:45;;;;;;;51.67;15.87;;;;;;;;;;5034540;28;20467;-70
2022/01/15 07:45:13;;;;;;;36.03;15.33;;;1.40;99.90;;;;;;5039580;28;20257;-71
2022/01/15 07:47:40;;;;;;;37.10;15.17;;;;;;;;;;5028680;28;20429;-71
2022/01/15 07:50:10;;;;;;;34.50;15.07;;;1.50;99.90;;;;;;5027066;28;20574;-71
2022/01/15 07:52:36;;;;;;;39.20;14.83;;;;;;;;;;5025852;28;20520;-71
2022/01/15 07:55:03;;;;;;;35.43;15.20;;;1.40;99.90;;;;;;5026375;28;20524;-72
2022/01/15 07:57:28;;;;;;;29.63;14.40;;;1.40;99.90;;;;;;5026750;28;20428;-71
2022/01/15 07:59:54;;;;;;;38.23;16.07;;;;;;;;;;5027205;28;20456;-71
2022/01/15 08:02:20;;;;;;;35.23;14.60;;;1.50;99.90;;;;;;5027048;28;20236;-71
2022/01/15 08:04:45;;;;;;;32.17;14.23;;;1.50;99.90;;;;;;5026261;28;20776;-71
2022/01/15 08:07:11;;;;;;;35.97;16.10;;;;;;;;;;5027667;28;20247;-69
2022/01/15 08:09:38;;;;;;;32.80;15.50;;;1.80;99.90;;;;;;5027283;28;20201;-71
2022/01/15 08:12:04;;;;;;;32.60;16.40;;;;;;;;;;5031576;28;20784;-70
2022/01/15 08:14:30;;;;;;;36.53;15.37;;;2.10;99.90;;;;;;5031166;28;20432;-70
2022/01/15 08:16:55;;;;;;;34.30;15.80;;;2.00;99.90;;;;;;5031179;28;20423;-71
2022/01/15 08:19:21;;;;;;;43.70;16.57;;;1.90;99.90;;;;;;5025881;28;20205;-71
2022/01/15 08:21:46;;;;;;;40.70;17.50;;;1.90;99.90;;;;;;5026900;28;20201;-71
2022/01/15 08:24:12;;;;;;;62.60;29.53;;;1.90;99.90;;;;;;5025857;28;20273;-70
2022/01/15 08:26:38;;;;;;;43.53;21.60;;;;;;;;;;5028044;28;20247;-71
2022/01/15 08:29:03;;;;;;;42.33;16.70;;;2.10;99.90;;;;;;5026667;28;20230;-71
2022/01/15 08:31:29;;;;;;;32.43;15.80;;;2.10;99.90;;;;;;5026242;28;20417;-70
2022/01/15 08:33:55;;;;;;;47.07;16.80;;;2.10;99.90;;;;;;5027899;28;20347;-71
2022/01/15 08:36:21;;;;;;;35.30;16.30;;;2.10;99.90;;;;;;5030537;28;20284;-71
2022/01/15 08:38:48;;;;;;;34.87;15.77;;;;;;;;;;5025194;28;20267;-72
2022/01/15 08:41:14;;;;;;;38.10;15.40;;;2.10;99.90;;;;;;5027759;28;20557;-72
2022/01/15 08:43:42;;;;;;;32.10;15.67;;;2.20;99.90;;;;;;5027644;28;20413;-71
2022/01/15 08:46:08;;;;;;;42.00;16.50;;;2.50;99.90;;;;;;5035915;28;20504;-70
2022/01/15 08:48:33;;;;;;;35.80;15.57;;;2.30;99.90;;;;;;5026140;28;20475;-71
2022/01/15 08:50:59;;;;;;;35.93;16.57;;;2.30;99.90;;;;;;5027932;28;20409;-70
2022/01/15 08:53:25;;;;;;;32.53;16.87;;;;;;;;;;5027398;28;20178;-69
2022/01/15 08:55:53;;;;;;;38.73;16.00;;;2.20;99.90;;;;;;5027641;28;20174;-71
2022/01/15 08:58:19;;;;;;;44.23;16.70;;;;;;;;;;5027361;28;20198;-69
2022/01/15 09:00:45;;;;;;;40.17;16.63;;;;;;;;;;5027623;28;20432;-71
2022/01/15 09:03:11;;;;;;;47.07;17.27;;;2.50;99.90;;;;;;5026842;28;20440;-70
2022/01/15 09:05:37;;;;;;;44.00;18.50;;;2.60;99.90;;;;;;5027322;28;20428;-70
2022/01/15 09:08:04;;;;;;;46.50;18.20;;;2.40;99.90;;;;;;5026960;28;20235;-72
2022/01/15 09:10:30;;;;;;;44.57;17.67;;;2.40;99.90;;;;;;5027457;28;20440;-70
2022/01/15 09:12:56;;;;;;;44.10;18.30;;;2.50;99.90;;;;;;5027107;28;20735;-71
2022/01/15 09:15:21;;;;;;;36.27;17.60;;;2.40;99.90;;;;;;5037609;28;20643;-71
2022/01/15 09:17:47;;;;;;;61.50;18.80;;;2.40;99.90;;;;;;5036959;28;20206;-71
2022/01/15 09:20:13;;;;;;;45.00;17.67;;;2.50;99.90;;;;;;5025600;28;20273;-71
2022/01/15 09:22:39;;;;;;;44.97;19.90;;;2.60;99.90;;;;;;5029036;28;20827;-70
2022/01/15 09:25:06;;;;;;;43.97;17.50;;;2.50;99.90;;;;;;5025779;28;20264;-71
2022/01/15 09:30:16;;;;;;;40.97;19.33;;;;;;;;;;5026479;28;21051;-71
2022/01/15 09:32:49;;;;;;;45.00;18.90;;;2.60;99.90;;;;;;5041165;28;20435;-70
2022/01/15 09:35:28;;;;;;;48.37;18.73;;;2.60;99.90;;;;;;5034916;28;20420;-71
2022/01/15 09:37:54;;;;;;;45.10;18.73;;;;;;;;;;5027857;28;20851;-71
2022/01/15 09:40:22;;;;;;;44.33;17.90;;;2.70;99.90;;;;;;5030705;28;20728;-71
2022/01/15 09:42:49;;;;;;;43.37;17.13;;;2.80;99.90;;;;;;5030561;28;20550;-71
2022/01/15 09:45:16;;;;;;;39.77;17.27;;;2.90;99.90;;;;;;5031597;28;20619;-71
2022/01/15 09:47:42;;;;;;;41.00;17.17;;;2.90;99.90;;;;;;5025370;28;20752;-71
2022/01/15 09:50:12;;;;;;;45.23;18.10;;;3.00;99.90;;;;;;5037228;28;20429;-73
2022/01/15 09:52:37;;;;;;;37.07;17.57;;;3.10;99.90;;;;;;5050746;28;20312;-71
2022/01/15 09:55:06;;;;;;;46.33;17.37;;;3.10;99.90;;;;;;5050107;28;20930;-71
2022/01/15 09:57:32;;;;;;;45.43;18.93;;;;;;;;;;5050746;28;20215;-71
2022/01/15 09:59:58;;;;;;;47.90;19.87;;;3.30;99.90;;;;;;5034193;28;20448;-72
2022/01/15 10:02:24;;;;;;;58.97;20.97;;;;;;;;;;5029948;28;20482;-71
2022/01/15 10:04:49;;;;;;;53.73;20.00;;;3.00;99.90;;;;;;5030314;28;20186;-71
2022/01/15 10:07:19;;;;;;;49.37;20.60;;;3.30;99.90;;;;;;5030344;28;20272;-71
2022/01/15 10:09:46;;;;;;;44.57;18.40;;;3.30;99.90;;;;;;5046599;28;20208;-71
2022/01/15 10:12:22;;;;;;;43.37;17.43;;;3.30;99.90;;;;;;5035456;28;20427;-71
2022/01/15 10:14:47;;;;;;;50.30;19.40;;;3.20;99.90;;;;;;5037048;28;20420;-71
2022/01/15 10:17:25;;;;;;;43.30;19.40;;;3.20;99.90;;;;;;5029137;28;21742;-71
2022/01/15 10:19:52;;;;;;;41.70;17.77;;;3.30;99.90;;;;;;5028724;28;20620;-71
2022/01/15 10:22:23;;;;;;;44.73;19.23;;;3.30;99.90;;;;;;5029781;28;20559;-72
2022/01/15 10:24:58;;;;;;;39.23;19.00;;;3.40;99.90;;;;;;5030043;28;21034;-71
2022/01/15 10:27:24;;;;;;;41.27;17.33;;;;;;;;;;5031032;28;20488;-72
2022/01/15 10:30:12;;;;;;;40.90;18.23;;;3.60;99.90;;;;;;5030456;28;20922;-72
2022/01/15 10:32:50;;;;;;;42.20;16.00;;;3.60;99.90;;;;;;5028343;28;20450;-71
2022/01/15 10:35:16;;;;;;;41.27;16.90;;;3.70;99.90;;;;;;5030110;28;20907;-71
2022/01/15 10:37:50;;;;;;;43.23;17.60;;;3.80;99.90;;;;;;5028207;28;20937;-71
2022/01/15 10:40:16;;;;;;;37.30;16.47;;;3.90;99.90;;;;;;5029844;28;20922;-72
2022/01/15 10:42:50;;;;;;;37.70;16.63;;;3.90;99.90;;;;;;5031957;28;20603;-74
2022/01/15 10:45:17;;;;;;;36.20;16.20;;;3.90;99.90;;;;;;5031186;28;20551;-72
2022/01/15 10:47:48;;;;;;;39.00;16.87;;;4.10;99.90;;;;;;5028906;28;20503;-71
2022/01/15 10:50:28;;;;;;;37.73;16.73;;;4.10;99.90;;;;;;5032984;28;20441;-73
2022/01/15 10:52:56;;;;;;;42.70;16.10;;;4.10;99.90;;;;;;5027230;28;20750;-72
2022/01/15 10:55:31;;;;;;;32.20;15.07;;;4.10;99.90;;;;;;5028820;28;20934;-72
2022/01/15 10:58:03;;;;;;;34.43;15.77;;;4.30;99.90;;;;;;5026838;28;20428;-72
2022/01/15 11:00:39;;;;;;;37.57;15.70;;;4.40;99.90;;;;;;5028703;28;20449;-72
2022/01/15 11:03:10;;;;;;;49.93;16.27;;;4.40;99.90;;;;;;5045399;28;21192;-72
2022/01/15 11:05:42;;;;;;;36.50;17.23;;;4.40;99.90;;;;;;5021977;28;20421;-72
2022/01/15 11:08:13;;;;;;;39.37;18.07;;;4.40;99.90;;;;;;5029167;28;20437;-72
2022/01/15 11:10:50;;;;;;;38.53;17.50;;;4.40;99.90;;;;;;5026717;28;20460;-73
2022/01/15 11:13:18;;;;;;;34.40;15.67;;;4.40;99.90;;;;;;5020332;28;20452;-72
2022/01/15 11:15:46;;;;;;;32.23;15.60;;;4.50;99.90;;;;;;5035344;28;20498;-72
2022/01/15 11:18:23;;;;;;;32.27;14.30;;;4.70;99.90;;;;;;5028468;28;20420;-72
2022/01/15 11:20:52;;;;;;;29.50;14.27;;;4.70;99.90;;;;;;5025014;28;20437;-72
2022/01/15 11:23:20;;;;;;;33.13;15.13;;;4.60;99.90;;;;;;5025133;28;20417;-72
2022/01/15 11:25:45;;;;;;;35.30;15.73;;;4.70;99.90;;;;;;5027532;28;20408;-72
2022/01/15 11:28:13;;;;;;;35.53;16.10;;;4.70;99.90;;;;;;5026165;28;20455;-72
2022/01/15 11:30:39;;;;;;;31.13;15.07;;;4.90;99.90;;;;;;5027621;28;20428;-72
2022/01/15 11:33:05;;;;;;;29.13;13.70;;;4.90;99.90;;;;;;5027687;28;20837;-72
2022/01/15 11:35:38;;;;;;;28.90;15.27;;;5.10;99.90;;;;;;5026979;28;20417;-72
2022/01/15 11:38:04;;;;;;;31.57;15.67;;;;;;;;;;5025573;28;20216;-73
2022/01/15 11:40:45;;;;;;;30.40;14.77;;;5.10;99.90;;;;;;5027836;28;20431;-72
2022/01/15 11:43:38;;;;;;;31.33;15.70;;;5.10;99.90;;;;;;5028150;28;20464;-73
2022/01/15 11:46:22;;;;;;;32.30;15.70;;;5.10;99.90;;;;;;5028532;28;20672;-72
2022/01/15 11:48:48;;;;;;;40.80;17.37;;;5.10;99.90;;;;;;5029387;28;20938;-72
2022/01/15 11:51:14;;;;;;;40.40;16.40;;;5.00;99.90;;;;;;5025817;28;21172;-72
2022/01/15 11:53:52;;;;;;;31.30;16.50;;;4.90;99.90;;;;;;5025639;28;20466;-73
2022/01/15 11:56:20;;;;;;;35.33;17.10;;;4.80;99.90;;;;;;5026390;28;20638;-73
2022/01/15 11:58:46;;;;;;;46.57;22.27;;;5.00;99.90;;;;;;5023131;28;20474;-72
2022/01/15 12:01:38;;;;;;;40.37;18.63;;;5.00;99.90;;;;;;5027028;28;20420;-71
2022/01/15 12:04:26;;;;;;;35.93;18.00;;;5.00;99.90;;;;;;5027049;28;20428;-71
2022/01/15 12:07:07;;;;;;;35.43;17.00;;;4.90;99.90;;;;;;5025986;28;20512;-71
2022/01/15 12:09:33;;;;;;;34.80;17.10;;;;;;;;;;5023332;28;20993;-71
2022/01/15 12:12:00;;;;;;;34.90;16.90;;;5.00;99.90;;;;;;5029012;28;20502;-71
2022/01/15 12:15:05;;;;;;;34.73;16.83;;;5.00;99.90;;;;;;5026803;28;20513;-72
2022/01/15 12:17:48;;;;;;;40.17;18.37;;;5.10;99.90;;;;;;5028844;28;21053;-74
2022/01/15 12:20:25;;;;;;;41.40;20.27;;;5.00;99.90;;;;;;5028397;28;20910;-70
2022/01/15 12:22:59;;;;;;;36.13;17.97;;;5.00;99.90;;;;;;5025614;28;20471;-73
2022/01/15 12:25:28;;;;;;;38.97;18.23;;;;;;;;;;5027183;28;20533;-71
2022/01/15 12:28:03;;;;;;;32.90;17.03;;;4.90;99.90;;;;;;5028410;28;20336;-72
2022/01/15 12:30:33;;;;;;;33.53;17.40;;;5.00;99.90;;;;;;5026709;28;20461;-71
2022/01/15 12:33:01;;;;;;;36.60;17.07;;;5.10;99.90;;;;;;5027551;28;20518;-70
2022/01/15 12:35:29;;;;;;;29.20;16.20;;;5.10;99.90;;;;;;5027822;28;20490;-71
2022/01/15 12:37:59;;;;;;;38.40;18.63;;;5.20;99.90;;;;;;5027632;28;20440;-72
2022/01/15 12:40:50;;;;;;;34.50;18.00;;;5.30;99.90;;;;;;5030380;28;20443;-71
2022/01/15 12:43:17;;;;;;;32.10;16.80;;;;;;;;;;5027687;28;20564;-71
2022/01/15 12:45:45;;;;;;;28.40;15.60;;;;;;;;;;5026114;28;20417;-71
2022/01/15 12:48:14;;;;;;;32.47;15.80;;;;;;;;;;5027571;28;20894;-71
2022/01/15 12:50:48;;;;;;;32.17;17.30;;;5.40;99.90;;;;;;5026116;28;20437;-70
2022/01/15 12:53:15;;;;;;;37.93;16.80;;;5.50;99.90;;;;;;5027336;28;20483;-70
2022/01/15 12:55:41;;;;;;;34.23;15.87;;;5.50;99.90;;;;;;5027336;28;20427;-71
2022/01/15 12:58:09;;;;;;;34.33;16.10;;;5.40;99.90;;;;;;5026222;28;20906;-72
2022/01/15 13:00:38;;;;;;;31.37;16.70;;;5.40;99.90;;;;;;5027867;28;20450;-71
2022/01/15 13:03:09;;;;;;;36.20;17.70;;;5.30;99.90;;;;;;5025426;28;20460;-72
2022/01/15 13:05:38;;;;;;;31.30;16.80;;;5.50;99.90;;;;;;5027794;28;20408;-70
2022/01/15 13:08:03;;;;;;;35.07;17.60;;;5.50;99.90;;;;;;5025674;28;20433;-70
2022/01/15 13:10:45;;;;;;;28.60;16.37;;;5.40;99.90;;;;;;5028967;28;20524;-70
2022/01/15 13:13:18;;;;;;;33.17;17.07;;;5.30;99.90;;;;;;5037424;28;20182;-71
2022/01/15 13:15:44;;;;;;;38.20;18.87;;;5.50;99.90;;;;;;5031097;28;20501;-71
2022/01/15 13:18:17;;;;;;;30.53;15.90;;;5.60;99.90;;;;;;5031176;28;20529;-70